Time;durP1;ratioP1;P1;durP2;ratioP2;P2;SDS_P1;SDS_P2;PMS_P1;PMS_P2;Temp;Humidity;BMP_temperature;BMP_pressure;BME280_temperature;BME280_humidity;BME280_pressure;Samples;Min_cycle;Max_cycle;Signal;HPM_P1;HPM_P2
2022/03/16 00:00:33;;;;;;;23.38;16.95;;;;;;;7.30;49.76;102753.14;1783409;80;21057;-76
2022/03/16 00:03:00;;;;;;;21.07;16.27;;;;;;;7.26;49.62;102752.20;1769445;80;21070;-75
2022/03/16 00:05:27;;;;;;;20.23;16.20;;;;;;;7.21;49.58;102746.47;1775710;80;20999;-76
2022/03/16 00:07:54;;;;;;;24.47;16.45;;;;;;;7.18;49.72;102742.50;1771986;79;21034;-76
2022/03/16 00:10:22;;;;;;;21.35;16.65;;;;;;;7.15;49.90;102739.86;1781661;79;21033;-74
2022/03/16 00:12:48;;;;;;;25.57;17.48;;;;;;;7.11;50.21;102741.92;1783524;79;20990;-77
2022/03/16 00:15:15;;;;;;;21.93;16.75;;;;;;;7.09;50.50;102738.42;1772340;79;21025;-76
2022/03/16 00:17:41;;;;;;;23.90;17.02;;;;;;;7.06;50.84;102735.75;1778573;79;21048;-80
2022/03/16 00:20:11;;;;;;;25.20;17.37;;;;;;;7.04;51.13;102737.02;1769413;79;21652;-77
2022/03/16 00:22:38;;;;;;;25.45;17.90;;;;;;;7.03;51.42;102733.06;1786523;79;21568;-76
2022/03/16 00:25:07;;;;;;;21.55;16.57;;;;;;;7.01;51.76;102734.75;1775458;79;21022;-77
2022/03/16 00:27:34;;;;;;;24.15;16.95;;;;;;;7.03;52.02;102722.71;1768497;80;21061;-77
2022/03/16 00:30:01;;;;;;;21.75;16.80;;;;;;;7.04;52.23;102716.71;1781697;79;21038;-75
2022/03/16 00:32:28;;;;;;;20.95;15.50;;;;;;;7.08;52.44;102719.83;1782404;80;21547;-78
2022/03/16 00:34:56;;;;;;;19.85;14.73;;;;;;;7.11;52.63;102714.74;1763663;80;21039;-74
2022/03/16 00:37:23;;;;;;;19.57;14.85;;;;;;;7.14;53.07;102714.80;1774431;80;22571;-77
2022/03/16 00:39:51;;;;;;;16.90;13.88;;;;;;;7.16;53.45;102714.41;1771537;80;21546;-76
2022/03/16 00:42:18;;;;;;;19.37;14.87;;;;;;;7.19;53.97;102710.61;1761003;79;20996;-76
2022/03/16 00:44:44;;;;;;;18.12;14.38;;;;;;;7.22;54.28;102708.08;1756742;80;21054;-77
2022/03/16 00:47:10;;;;;;;16.55;13.45;;;;;;;7.25;54.64;102718.52;1765162;80;21054;-75
2022/03/16 00:49:37;;;;;;;20.02;14.53;;;;;;;7.29;55.24;102709.53;1771979;79;21544;-74
2022/03/16 00:52:05;;;;;;;18.67;13.58;;;;;;;7.35;55.63;102717.88;1757384;80;21030;-77
2022/03/16 00:54:32;;;;;;;20.77;13.28;;;;;;;7.40;55.93;102716.25;1773208;80;21047;-79
2022/03/16 00:57:00;;;;;;;16.30;12.90;;;;;;;7.45;56.35;102725.02;1781769;79;21058;-77
2022/03/16 00:59:27;;;;;;;17.07;13.08;;;;;;;7.48;56.80;102718.59;1766167;79;21038;-73
2022/03/16 01:01:53;;;;;;;18.25;13.48;;;;;;;7.51;57.07;102714.78;1786595;79;21572;-76
2022/03/16 01:04:20;;;;;;;17.67;13.58;;;;;;;7.56;57.36;102715.77;1785912;79;21045;-75
2022/03/16 01:06:46;;;;;;;15.68;12.20;;;;;;;7.60;57.56;102713.70;1777971;79;21069;-79
2022/03/16 01:09:14;;;;;;;20.90;12.53;;;;;;;7.63;57.71;102711.16;1779731;79;21003;-76
2022/03/16 01:11:42;;;;;;;16.10;12.43;;;;;;;7.68;57.84;102720.33;1738810;80;21600;-77
2022/03/16 01:14:08;;;;;;;17.52;12.43;;;;;;;7.71;57.92;102713.90;1710178;82;21106;-75
2022/03/16 01:16:39;;;;;;;13.30;11.28;;;;;;;7.74;58.06;102710.97;1779532;79;21482;-76
2022/03/16 01:19:07;;;;;;;19.05;13.20;;;;;;;7.77;58.12;102716.20;1782403;79;21065;-76
2022/03/16 01:21:34;;;;;;;15.80;11.83;;;;;;;7.80;58.25;102713.69;1768998;79;21022;-76
2022/03/16 01:24:03;;;;;;;16.55;11.60;;;;;;;7.82;58.35;102712.00;1726789;81;21034;-75
2022/03/16 01:26:30;;;;;;;17.27;12.35;;;;;;;7.86;58.48;102720.30;1729273;82;21003;-73
2022/03/16 01:28:57;;;;;;;18.40;12.30;;;;;;;7.90;58.69;102718.22;1781828;79;21058;-76
2022/03/16 01:31:23;;;;;;;18.80;13.20;;;;;;;7.93;58.70;102714.81;1788962;79;21478;-75
2022/03/16 01:33:50;;;;;;;17.48;12.80;;;;;;;7.94;58.48;102714.84;1775311;79;21033;-72
2022/03/16 01:36:18;;;;;;;17.73;12.43;;;;;;;7.93;58.31;102710.48;1782566;79;21017;-73
2022/03/16 01:38:46;;;;;;;19.07;12.18;;;;;;;7.92;58.39;102705.27;1688330;82;21697;-73
2022/03/16 01:41:13;;;;;;;18.90;12.75;;;;;;;7.90;58.35;102707.84;1725114;82;21124;-73
2022/03/16 01:43:40;;;;;;;19.48;12.53;;;;;;;7.90;58.39;102713.44;1711848;81;21001;-75
2022/03/16 01:46:06;;;;;;;15.58;11.93;;;;;;;7.91;58.47;102714.77;1714550;82;21573;-73
2022/03/16 01:48:34;;;;;;;17.02;11.55;;;;;;;7.93;58.54;102701.41;1718406;82;21047;-75
2022/03/16 01:51:00;;;;;;;20.40;13.18;;;;;;;7.97;58.52;102707.14;1716726;82;21087;-75
2022/03/16 01:53:27;;;;;;;17.02;12.18;;;;;;;7.97;58.39;102699.36;1720951;82;21161;-73
2022/03/16 01:55:53;;;;;;;18.57;12.60;;;;;;;8.00;58.35;102699.41;1716163;82;21034;-75
2022/03/16 01:58:20;;;;;;;18.67;12.30;;;;;;;7.99;58.35;102697.67;1698208;83;21057;-77
2022/03/16 02:00:48;;;;;;;20.35;12.78;;;;;;;7.99;58.47;102693.78;1705896;82;21043;-77
2022/03/16 02:03:15;;;;;;;19.20;11.73;;;;;;;8.00;58.52;102699.41;1721508;82;21138;-73
2022/03/16 02:05:43;;;;;;;18.15;11.90;;;;;;;8.01;58.59;102694.69;1780503;78;21120;-76
2022/03/16 02:08:10;;;;;;;16.93;11.73;;;;;;;8.05;58.61;102699.09;1776945;79;21688;-76
2022/03/16 02:10:40;;;;;;;16.02;11.95;;;;;;;8.07;58.63;102702.58;1778386;79;21557;-76
2022/03/16 02:13:10;;;;;;;20.70;12.50;;;;;;;8.09;58.73;102693.11;1784558;79;21566;-73
2022/03/16 02:15:39;;;;;;;23.52;12.18;;;;;;;8.11;58.71;102695.31;1733724;82;21107;-76
2022/03/16 02:18:06;;;;;;;18.98;12.25;;;;;;;8.11;58.58;102701.80;1769177;79;20982;-80
2022/03/16 02:20:34;;;;;;;17.12;11.80;;;;;;;8.10;58.55;102706.52;1783193;79;21027;-80
2022/03/16 02:23:05;;;;;;;18.25;11.25;;;;;;;8.09;58.51;102702.60;1764018;79;21045;-76
2022/03/16 02:25:31;;;;;;;14.28;10.75;;;;;;;8.09;58.50;102715.16;1757326;80;20995;-74
2022/03/16 02:28:00;;;;;;;20.02;10.90;;;;;;;8.07;58.61;102711.66;1784754;79;20991;-76
2022/03/16 02:30:28;;;;;;;16.15;11.03;;;;;;;8.06;58.58;102718.97;1758550;79;20994;-75
2022/03/16 02:32:55;;;;;;;17.75;11.50;;;;;;;8.05;58.61;102723.72;1777795;79;20993;-75
2022/03/16 02:35:23;;;;;;;18.95;12.25;;;;;;;8.02;58.63;102728.83;1780325;79;21108;-75
2022/03/16 02:37:51;;;;;;;19.45;11.00;;;;;;;8.01;58.58;102730.98;1782790;79;21042;-74
2022/03/16 02:40:20;;;;;;;20.60;11.68;;;;;;;7.99;58.60;102726.19;1779636;79;21005;-75
2022/03/16 02:42:48;;;;;;;17.27;11.10;;;;;;;7.97;58.65;102740.84;1731192;82;21090;-76
2022/03/16 02:45:14;;;;;;;17.65;11.65;;;;;;;7.96;58.58;102741.66;1736596;82;21003;-76
2022/03/16 02:47:41;;;;;;;16.77;11.40;;;;;;;7.97;58.53;102738.25;1725983;82;21012;-74
2022/03/16 02:50:10;;;;;;;25.02;11.78;;;;;;;7.94;58.54;102734.28;1783418;79;21743;-79
2022/03/16 02:52:37;;;;;;;18.57;10.95;;;;;;;7.94;58.64;102738.17;1773947;79;21597;-73
2022/03/16 02:55:06;;;;;;;22.67;11.55;;;;;;;7.93;58.64;102737.70;1776681;79;22213;-76
2022/03/16 02:57:34;;;;;;;18.85;11.30;;;;;;;7.92;58.71;102737.27;1777022;78;21021;-76
2022/03/16 03:00:03;;;;;;;21.02;11.65;;;;;;;7.93;58.78;102737.70;1786369;79;21062;-74
2022/03/16 03:02:30;;;;;;;17.50;11.45;;;;;;;7.94;58.71;102732.98;1778047;79;21056;-73
2022/03/16 03:04:59;;;;;;;17.92;10.43;;;;;;;7.94;58.75;102735.58;1793453;78;21010;-76
2022/03/16 03:07:27;;;;;;;17.70;11.22;;;;;;;7.97;58.81;102734.77;1782974;79;21015;-73
2022/03/16 03:09:54;;;;;;;19.30;11.22;;;;;;;7.98;58.81;102732.20;1790604;79;21118;-77
2022/03/16 03:12:21;;;;;;;17.92;12.20;;;;;;;7.98;58.75;102732.20;1765931;80;21507;-73
2022/03/16 03:14:47;;;;;;;16.97;11.00;;;;;;;7.98;58.85;102739.09;1767208;79;21009;-73
2022/03/16 03:17:14;;;;;;;21.02;11.75;;;;;;;7.99;58.90;102742.16;1775643;80;20992;-73
2022/03/16 03:19:43;;;;;;;18.67;11.60;;;;;;;8.00;58.97;102727.92;1758061;80;21489;-76
2022/03/16 03:22:09;;;;;;;18.32;11.85;;;;;;;8.01;58.87;102734.87;1770371;80;21042;-75
2022/03/16 03:24:39;;;;;;;21.25;11.95;;;;;;;8.00;58.90;102737.41;1775902;79;21082;-73
2022/03/16 03:27:06;;;;;;;18.20;11.45;;;;;;;8.02;58.98;102733.12;1769127;79;20970;-76
2022/03/16 03:29:32;;;;;;;17.48;10.65;;;;;;;8.01;58.93;102732.28;1763518;80;21550;-73
2022/03/16 03:31:59;;;;;;;14.73;10.45;;;;;;;8.00;58.78;102729.22;1779338;80;20991;-77
2022/03/16 03:34:27;;;;;;;19.90;10.68;;;;;;;8.01;58.67;102727.09;1768389;78;21137;-73
2022/03/16 03:36:55;;;;;;;17.20;10.75;;;;;;;7.98;58.60;102725.72;1784219;79;21052;-76
2022/03/16 03:39:21;;;;;;;13.15;9.73;;;;;;;7.98;58.44;102723.12;1784172;78;21022;-79
2022/03/16 03:41:48;;;;;;;15.65;10.05;;;;;;;7.98;58.33;102719.24;1773367;79;21106;-76
2022/03/16 03:44:14;;;;;;;18.02;10.95;;;;;;;7.97;58.34;102724.41;1781691;78;21467;-74
2022/03/16 03:46:41;;;;;;;17.92;10.10;;;;;;;7.97;58.45;102724.41;1716385;82;21066;-73
2022/03/16 03:49:08;;;;;;;12.98;9.90;;;;;;;7.97;58.46;102721.40;1716744;83;21051;-75
2022/03/16 03:51:35;;;;;;;20.43;11.38;;;;;;;7.97;58.47;102713.63;1730803;81;21054;-73
2022/03/16 03:54:02;;;;;;;20.20;11.50;;;;;;;7.96;58.51;102723.52;1716169;82;21013;-78
2022/03/16 03:56:29;;;;;;;21.45;11.08;;;;;;;7.97;58.44;102723.98;1713169;82;21101;-77
2022/03/16 03:58:56;;;;;;;16.00;11.80;;;;;;;7.94;58.49;102714.84;1754281;81;21055;-73
2022/03/16 04:01:22;;;;;;;17.05;10.82;;;;;;;7.97;58.32;102718.80;1735546;82;21514;-74
2022/03/16 04:03:51;;;;;;;15.13;10.93;;;;;;;7.97;58.37;102712.73;1730662;82;21538;-76
2022/03/16 04:06:17;;;;;;;17.85;11.05;;;;;;;7.97;58.29;102717.51;1722259;81;20968;-76
2022/03/16 04:08:43;;;;;;;18.00;10.85;;;;;;;7.95;58.29;102726.97;1740909;81;21035;-77
2022/03/16 04:11:12;;;;;;;19.05;10.85;;;;;;;7.95;58.42;102726.97;1740138;81;21082;-75
2022/03/16 04:13:38;;;;;;;18.17;10.68;;;;;;;7.95;58.41;102725.67;1727183;81;20979;-78
2022/03/16 04:16:05;;;;;;;19.10;12.00;;;;;;;7.93;58.42;102733.81;1719024;81;21566;-76
2022/03/16 04:18:33;;;;;;;16.52;10.23;;;;;;;7.94;58.43;102718.73;1715501;82;21075;-75
2022/03/16 04:21:00;;;;;;;14.05;11.05;;;;;;;7.94;58.38;102730.39;1788642;78;21031;-74
2022/03/16 04:23:27;;;;;;;15.13;10.75;;;;;;;7.95;58.30;102720.91;1783773;79;21529;-74
2022/03/16 04:25:53;;;;;;;18.35;10.05;;;;;;;7.94;58.17;102725.63;1780222;79;20994;-77
2022/03/16 04:28:20;;;;;;;17.02;10.40;;;;;;;7.93;58.17;102717.41;1776201;79;21030;-72
2022/03/16 04:30:47;;;;;;;16.52;11.25;;;;;;;7.93;58.28;102720.00;1788991;79;21458;-79
2022/03/16 04:33:14;;;;;;;18.80;11.50;;;;;;;7.94;58.26;102732.10;1775706;79;21654;-77
2022/03/16 04:35:41;;;;;;;17.23;10.35;;;;;;;7.93;58.23;102728.63;1712487;81;21065;-73
2022/03/16 04:38:11;;;;;;;22.65;11.40;;;;;;;7.95;58.16;102733.45;1768954;80;21017;-74
2022/03/16 04:40:37;;;;;;;20.60;11.45;;;;;;;7.95;58.12;102731.27;1781957;79;21027;-74
2022/03/16 04:43:05;;;;;;;18.37;11.57;;;;;;;7.96;57.97;102736.48;1787613;79;21023;-74
2022/03/16 04:45:32;;;;;;;21.52;12.65;;;;;;;7.96;57.91;102743.38;1766523;79;21029;-76
2022/03/16 04:47:59;;;;;;;18.20;11.88;;;;;;;7.96;58.02;102744.26;1790745;79;21514;-76
2022/03/16 04:50:26;;;;;;;23.40;12.15;;;;;;;7.97;58.15;102746.02;1784779;78;21045;-74
2022/03/16 04:52:52;;;;;;;19.42;12.20;;;;;;;7.99;58.16;102745.63;1782444;79;21021;-79
2022/03/16 04:55:19;;;;;;;15.18;11.00;;;;;;;8.00;58.26;102743.47;1777779;79;21061;-77
2022/03/16 04:57:47;;;;;;;23.73;12.55;;;;;;;8.02;58.22;102753.87;1793420;79;21066;-75
2022/03/16 05:00:15;;;;;;;21.68;11.95;;;;;;;8.01;58.14;102751.72;1786892;78;21093;-78
2022/03/16 05:02:43;;;;;;;23.27;11.97;;;;;;;8.03;58.24;102753.92;1788411;79;21074;-77
2022/03/16 05:05:10;;;;;;;20.25;11.53;;;;;;;8.06;58.23;102750.08;1796529;78;21021;-76
2022/03/16 05:07:39;;;;;;;14.83;11.08;;;;;;;8.09;58.02;102755.34;1771162;79;21033;-76
2022/03/16 05:10:07;;;;;;;18.05;11.53;;;;;;;8.09;57.89;102752.75;1782274;78;21514;-75
2022/03/16 05:12:39;;;;;;;20.92;12.10;;;;;;;8.10;57.85;102754.89;1785350;79;21055;-77
2022/03/16 05:15:08;;;;;;;17.32;10.85;;;;;;;8.10;57.82;102757.07;1723821;82;20991;-75
2022/03/16 05:17:35;;;;;;;16.32;10.80;;;;;;;8.11;57.73;102762.73;1702624;82;21550;-78
2022/03/16 05:20:08;;;;;;;16.32;10.05;;;;;;;8.11;57.71;102760.14;1725765;82;21066;-78
2022/03/16 05:22:52;;;;;;;20.35;9.98;;;;;;;8.10;57.50;102754.48;1712083;81;21526;-74
2022/03/16 05:25:23;;;;;;;15.32;10.23;;;;;;;8.09;57.31;102763.12;1706913;82;21047;-75
2022/03/16 05:27:50;;;;;;;13.38;9.30;;;;;;;8.08;57.22;102765.24;1732823;81;21482;-74
2022/03/16 05:30:20;;;;;;;18.62;9.45;;;;;;;8.06;57.23;102768.23;1696400;82;21121;-78
2022/03/16 05:32:46;;;;;;;13.65;9.88;;;;;;;8.06;57.24;102772.53;1681343;83;21505;-78
2022/03/16 05:35:13;;;;;;;19.17;9.53;;;;;;;8.03;57.22;102777.67;1691266;83;21060;-77
2022/03/16 05:37:41;;;;;;;15.05;9.25;;;;;;;8.03;57.17;102773.78;1703601;82;21000;-77
2022/03/16 05:40:08;;;;;;;16.67;9.80;;;;;;;8.03;57.24;102772.08;1692557;83;21545;-77
2022/03/16 05:42:35;;;;;;;14.65;9.70;;;;;;;8.04;57.23;102782.87;1691453;83;21061;-76
2022/03/16 05:45:02;;;;;;;13.93;10.03;;;;;;;8.05;57.10;102792.84;1688536;83;21550;-75
2022/03/16 05:47:28;;;;;;;19.77;9.78;;;;;;;8.03;56.94;102796.70;1694101;83;21059;-79
2022/03/16 05:49:56;;;;;;;19.37;9.85;;;;;;;8.01;56.98;102795.80;1680105;83;21102;-78
2022/03/16 05:52:24;;;;;;;13.85;8.78;;;;;;;8.02;57.09;102796.23;1702089;83;21138;-77
2022/03/16 05:54:55;;;;;;;17.50;9.50;;;;;;;8.04;57.10;102797.14;1689407;84;22212;-75
2022/03/16 05:57:22;;;;;;;13.35;9.20;;;;;;;8.04;56.92;102789.36;1686040;83;21074;-76
2022/03/16 05:59:50;;;;;;;12.70;8.95;;;;;;;8.04;56.77;102790.66;1689899;83;21097;-76
2022/03/16 06:02:16;;;;;;;17.07;9.40;;;;;;;8.03;56.76;102785.03;1704085;83;21050;-76
2022/03/16 06:04:43;;;;;;;13.38;8.55;;;;;;;8.02;56.68;102794.94;1683250;83;21010;-78
2022/03/16 06:07:10;;;;;;;12.93;8.45;;;;;;;8.02;56.68;102797.53;1693067;83;21059;-77
2022/03/16 06:09:37;;;;;;;12.40;8.20;;;;;;;8.04;56.67;102797.14;1694557;83;21582;-76
2022/03/16 06:12:07;;;;;;;14.38;8.58;;;;;;;8.06;56.60;102795.45;1683063;84;21558;-84
2022/03/16 06:14:34;;;;;;;12.58;8.80;;;;;;;8.08;56.65;102789.88;1697734;84;21510;-79
2022/03/16 06:17:02;;;;;;;15.38;9.50;;;;;;;8.10;56.57;102793.38;1702082;83;21558;-80
2022/03/16 06:19:29;;;;;;;13.70;8.60;;;;;;;8.12;56.53;102789.50;1692701;83;21550;-78
2022/03/16 06:21:56;;;;;;;15.15;8.85;;;;;;;8.12;56.44;102790.39;1705090;82;21044;-74
2022/03/16 06:24:22;;;;;;;13.85;8.03;;;;;;;8.14;56.38;102786.11;1724955;82;21014;-78
2022/03/16 06:26:49;;;;;;;13.53;8.13;;;;;;;8.17;56.37;102788.78;1713964;82;21006;-77
2022/03/16 06:29:16;;;;;;;12.78;7.70;;;;;;;8.17;56.01;102792.67;1722903;82;21055;-80
2022/03/16 06:31:42;;;;;;;12.65;7.65;;;;;;;8.17;55.91;102795.67;1720340;82;20995;-74
2022/03/16 06:34:08;;;;;;;13.48;8.23;;;;;;;8.16;55.91;102802.57;1712407;82;21549;-78
2022/03/16 06:36:35;;;;;;;16.00;8.48;;;;;;;8.18;55.94;102797.44;1710637;82;20995;-78
2022/03/16 06:39:02;;;;;;;19.98;9.18;;;;;;;8.20;55.97;102802.23;1740021;82;21039;-75
2022/03/16 06:41:29;;;;;;;14.65;8.93;;;;;;;8.22;55.58;102813.07;1728870;82;21058;-76
2022/03/16 06:43:55;;;;;;;20.15;10.70;;;;;;;8.24;55.50;102806.64;1781368;79;21019;-75
2022/03/16 06:46:22;;;;;;;12.88;8.93;;;;;;;8.26;55.70;102814.06;1772647;79;21525;-79
2022/03/16 06:48:49;;;;;;;11.15;8.20;;;;;;;8.30;55.65;102816.28;1768448;80;21015;-78
2022/03/16 06:51:16;;;;;;;12.40;8.38;;;;;;;8.33;55.42;102822.81;1780445;79;21030;-82
2022/03/16 06:53:43;;;;;;;15.75;9.00;;;;;;;8.35;55.37;102824.60;1786731;79;21029;-78
2022/03/16 06:56:09;;;;;;;11.28;7.17;;;;;;;8.40;55.29;102819.52;1762009;80;21014;-77
2022/03/16 06:58:36;;;;;;;16.20;7.80;;;;;;;8.47;55.31;102822.25;1763958;80;21018;-75
2022/03/16 07:01:02;;;;;;;14.33;8.40;;;;;;;8.53;55.19;102826.70;1787371;78;21026;-76
2022/03/16 07:03:29;;;;;;;15.40;8.38;;;;;;;8.59;54.92;102834.61;1782358;79;21470;-77
2022/03/16 07:05:56;;;;;;;12.18;7.20;;;;;;;8.63;54.76;102839.01;1789898;79;21046;-75
2022/03/16 07:08:23;;;;;;;11.57;7.33;;;;;;;8.67;54.67;102840.41;1766492;79;21038;-79
2022/03/16 07:10:49;;;;;;;14.87;7.10;;;;;;;8.70;54.35;102844.75;1773425;79;21045;-77
2022/03/16 07:13:17;;;;;;;11.63;7.33;;;;;;;8.71;54.09;102847.40;1776880;79;21023;-75
2022/03/16 07:15:45;;;;;;;13.62;7.08;;;;;;;8.73;53.86;102851.31;1768885;80;21105;-78
2022/03/16 07:18:12;;;;;;;12.98;6.90;;;;;;;8.75;53.52;102850.91;1731522;82;21529;-75
2022/03/16 07:20:39;;;;;;;12.90;6.60;;;;;;;8.75;53.43;102862.59;1774721;79;21110;-78
2022/03/16 07:23:13;;;;;;;11.53;6.05;;;;;;;8.77;53.27;102865.68;1769689;79;21004;-75
2022/03/16 07:25:43;;;;;;;16.37;7.10;;;;;;;8.82;53.10;102885.24;1743666;82;21585;-76
2022/03/16 07:28:11;;;;;;;12.13;6.37;;;;;;;8.86;52.95;102884.45;1684566;84;21148;-75
2022/03/16 07:30:38;;;;;;;12.78;6.00;;;;;;;8.86;52.62;102887.05;1684316;84;21044;-76
2022/03/16 07:33:05;;;;;;;13.85;5.80;;;;;;;8.85;52.68;102893.08;1668780;85;21099;-77
2022/03/16 07:35:33;;;;;;;8.83;5.70;;;;;;;8.84;52.59;102888.74;1682212;83;21046;-77
2022/03/16 07:40:31;;;;;;;10.23;5.90;;;;;;;8.82;52.36;102899.07;1667505;86;21106;-78
2022/03/16 07:42:57;;;;;;;12.88;6.35;;;;;;;8.83;52.28;102902.55;1670467;86;21043;-76
2022/03/16 07:45:24;;;;;;;11.57;5.87;;;;;;;8.84;52.17;102904.32;1665254;86;21551;-78
2022/03/16 07:47:52;;;;;;;10.93;6.00;;;;;;;8.84;52.05;102905.17;1670346;86;21054;-74
2022/03/16 07:50:20;;;;;;;9.53;5.12;;;;;;;8.84;52.07;102912.95;1670513;86;21063;-76
2022/03/16 07:52:48;;;;;;;8.83;5.40;;;;;;;8.85;52.03;102912.13;1670698;85;21006;-79
2022/03/16 07:55:15;;;;;;;11.48;5.08;;;;;;;8.89;51.79;102907.86;1671730;86;21112;-81
2022/03/16 07:57:41;;;;;;;5.97;4.65;;;;;;;8.93;51.71;102906.66;1670575;86;21129;-74
2022/03/16 08:00:12;;;;;;;8.95;5.00;;;;;;;8.96;51.41;102907.15;1663664;86;21560;-79
2022/03/16 08:02:41;;;;;;;10.30;4.90;;;;;;;8.98;51.43;102906.75;1664447;85;21081;-75
2022/03/16 08:05:08;;;;;;;9.48;4.45;;;;;;;8.99;51.10;102894.20;1676697;85;21170;-76
2022/03/16 08:07:36;;;;;;;13.43;5.47;;;;;;;9.00;51.07;102888.18;1665304;86;21064;-76
2022/03/16 08:10:03;;;;;;;11.08;5.20;;;;;;;9.02;51.05;102886.48;1637710;86;21048;-77
2022/03/16 08:12:30;;;;;;;11.05;4.92;;;;;;;9.03;51.14;102872.64;1651745;86;21057;-78
2022/03/16 08:15:00;;;;;;;8.28;4.70;;;;;;;9.06;50.81;102866.63;1648428;86;21096;-76
2022/03/16 08:17:27;;;;;;;8.00;4.83;;;;;;;9.07;51.26;102858.86;1650813;86;21041;-75
2022/03/16 08:19:53;;;;;;;8.60;5.15;;;;;;;9.13;51.31;102865.45;1657235;86;21046;-77
2022/03/16 08:22:31;;;;;;;9.55;4.97;;;;;;;9.19;51.02;102865.56;1643380;86;21074;-75
2022/03/16 08:25:00;;;;;;;10.10;4.67;;;;;;;9.20;50.85;102855.64;1664715;83;21033;-77
2022/03/16 08:27:27;;;;;;;7.05;4.35;;;;;;;9.22;50.80;102859.14;1724048;82;21018;-78
2022/03/16 08:29:55;;;;;;;13.62;5.10;;;;;;;9.23;50.54;102846.61;1723807;82;21038;-76
2022/03/16 08:32:22;;;;;;;9.30;4.75;;;;;;;9.27;50.56;102854.91;1723813;83;21597;-76
2022/03/16 08:34:49;;;;;;;10.13;5.20;;;;;;;9.34;50.32;102859.34;1724849;82;21045;-78
2022/03/16 08:37:15;;;;;;;7.62;4.45;;;;;;;9.41;50.31;102858.61;1713759;82;21017;-76
2022/03/16 08:39:42;;;;;;;13.25;4.92;;;;;;;9.45;49.96;102859.11;1714460;82;21088;-75
2022/03/16 08:42:14;;;;;;;7.50;4.40;;;;;;;9.52;49.75;102863.98;1709261;83;21034;-78
2022/03/16 08:44:42;;;;;;;8.38;4.67;;;;;;;9.54;49.50;102864.88;1767480;79;21019;-76
2022/03/16 08:47:10;;;;;;;9.28;4.40;;;;;;;9.55;49.55;102864.02;1778461;79;21571;-77
2022/03/16 08:49:37;;;;;;;9.93;4.75;;;;;;;9.54;49.54;102863.13;1767165;79;21448;-78
2022/03/16 08:52:06;;;;;;;8.78;4.50;;;;;;;9.56;49.32;102864.03;1773511;80;21006;-78
2022/03/16 08:54:33;;;;;;;10.75;4.37;;;;;;;9.56;49.04;102861.42;1776602;79;21026;-79
2022/03/16 08:57:01;;;;;;;8.60;4.45;;;;;;;9.54;48.86;102854.03;1766183;79;21523;-75
2022/03/16 08:59:29;;;;;;;8.53;4.22;;;;;;;9.51;48.78;102852.70;1759128;80;21079;-78
2022/03/16 09:01:57;;;;;;;9.55;4.75;;;;;;;9.46;48.81;102842.64;1767625;80;21570;-75
2022/03/16 09:04:24;;;;;;;8.25;4.05;;;;;;;9.45;49.00;102847.41;1770883;77;21057;-77
2022/03/16 09:06:52;;;;;;;11.50;4.40;;;;;;;9.45;49.05;102844.81;1755083;80;21058;-77
2022/03/16 09:09:19;;;;;;;8.93;4.92;;;;;;;9.47;48.68;102844.83;1785499;79;21026;-79
2022/03/16 09:11:45;;;;;;;11.95;4.50;;;;;;;9.49;48.72;102849.20;1772659;79;21013;-76
2022/03/16 09:14:12;;;;;;;8.63;3.98;;;;;;;9.48;48.69;102849.19;1782227;80;21000;-79
2022/03/16 09:16:39;;;;;;;8.15;4.22;;;;;;;9.45;48.20;102850.01;1767573;79;21043;-76
2022/03/16 09:19:05;;;;;;;17.55;4.35;;;;;;;9.41;48.56;102844.73;1784459;79;21513;-78
2022/03/16 09:21:32;;;;;;;7.65;3.90;;;;;;;9.38;48.60;102854.64;1777800;79;21588;-79
2022/03/16 09:23:59;;;;;;;7.40;4.28;;;;;;;9.36;48.50;102842.05;1784603;79;21085;-77
2022/03/16 09:26:27;;;;;;;8.63;4.45;;;;;;;9.36;48.59;102851.56;1786969;79;21034;-76
2022/03/16 09:28:55;;;;;;;6.92;3.50;;;;;;;9.35;48.29;102842.92;1771765;79;21047;-77
2022/03/16 09:31:22;;;;;;;11.12;4.15;;;;;;;9.34;48.29;102854.14;1785991;79;21063;-77
2022/03/16 09:33:49;;;;;;;10.18;4.03;;;;;;;9.34;48.60;102864.95;1774301;79;21490;-78
2022/03/16 09:36:15;;;;;;;9.63;4.10;;;;;;;9.34;48.31;102863.23;1780263;79;21014;-76
2022/03/16 09:38:43;;;;;;;7.83;3.92;;;;;;;9.35;48.06;102865.00;1777168;79;21002;-81
2022/03/16 09:41:09;;;;;;;11.88;4.20;;;;;;;9.36;47.83;102858.94;1780134;79;21505;-77
2022/03/16 09:43:36;;;;;;;8.40;3.55;;;;;;;9.37;47.88;102863.72;1764194;79;21008;-77
2022/03/16 09:46:10;;;;;;;5.05;3.40;;;;;;;9.34;47.94;102854.14;1757838;79;21030;-76
2022/03/16 09:48:39;;;;;;;6.17;3.40;;;;;;;9.32;47.71;102858.44;1762134;80;21079;-74
2022/03/16 09:51:07;;;;;;;10.10;4.30;;;;;;;9.26;47.91;102860.94;1767340;80;21070;-75
2022/03/16 09:53:33;;;;;;;5.78;3.62;;;;;;;9.23;47.72;102858.30;1772408;79;21025;-78
2022/03/16 09:56:00;;;;;;;9.28;3.85;;;;;;;9.24;47.69;102866.95;1772993;80;20969;-75
2022/03/16 09:58:27;;;;;;;7.80;3.40;;;;;;;9.21;47.70;102861.72;1754272;80;21494;-75
2022/03/16 10:00:53;;;;;;;7.05;3.10;;;;;;;9.21;47.66;102853.48;1737869;80;21068;-77
2022/03/16 10:03:25;;;;;;;9.05;3.27;;;;;;;9.20;47.41;102862.55;1765901;80;21128;-76
2022/03/16 10:05:52;;;;;;;8.73;3.37;;;;;;;9.17;47.64;102860.77;1735446;82;21040;-76
2022/03/16 10:08:29;;;;;;;6.17;3.60;;;;;;;9.13;47.74;102869.35;1720480;81;21560;-78
2022/03/16 10:14:08;;;;;;;6.53;3.00;;;;;;;9.14;47.83;102854.23;1598262;88;21104;-77
2022/03/16 10:17:43;;;;;;;8.73;4.00;;;;;;;9.15;47.38;102849.92;1588445;88;21103;-75
2022/03/16 10:19:03;;;;;;;7.05;3.42;;;;;;;9.13;46.99;102852.92;1594820;88;21038;-78
2022/03/16 10:21:32;;;;;;;5.05;2.58;;;;;;;9.12;46.97;102855.94;1526121;92;21066;-75
2022/03/16 10:24:03;;;;;;;11.68;3.70;;;;;;;9.15;47.15;102869.41;1580919;88;21054;-79
2022/03/16 10:26:28;;;;;;;8.53;3.47;;;;;;;9.19;47.18;102865.56;1565141;90;21607;-78
2022/03/16 10:29:04;;;;;;;6.40;3.40;;;;;;;9.22;47.17;102853.94;1586638;89;21130;-78
2022/03/16 10:31:27;;;;;;;7.60;3.42;;;;;;;9.28;46.72;102845.36;1614006;87;21055;-75
2022/03/16 10:33:55;;;;;;;8.60;3.10;;;;;;;9.29;46.49;102849.31;1610541;87;21102;-76
2022/03/16 10:36:23;;;;;;;7.78;3.37;;;;;;;9.25;45.93;102861.80;1615198;87;21129;-79
2022/03/16 10:38:58;;;;;;;7.20;3.25;;;;;;;9.23;46.13;102858.30;1606738;88;21647;-75
2022/03/16 10:47:15;;;;;;;5.25;3.50;;;;;;;9.22;46.35;102861.73;1631874;87;21061;-78
2022/03/16 10:49:43;;;;;;;7.28;3.58;;;;;;;9.24;45.78;102868.25;1619408;87;21121;-76
2022/03/16 10:52:17;;;;;;;9.00;3.58;;;;;;;9.24;45.40;102860.45;1619472;87;21109;-77
2022/03/16 10:54:45;;;;;;;8.55;3.50;;;;;;;9.19;45.46;102864.27;1612497;87;21125;-78
2022/03/16 10:57:13;;;;;;;6.65;3.37;;;;;;;9.14;45.41;102854.23;1622796;88;21121;-78
2022/03/16 10:59:48;;;;;;;7.50;3.75;;;;;;;9.12;45.32;102853.34;1615034;88;21103;-76
2022/03/16 11:02:14;;;;;;;7.80;3.45;;;;;;;9.11;45.22;102850.27;1630832;85;21140;-78
2022/03/16 11:04:46;;;;;;;10.48;3.77;;;;;;;9.10;44.87;102857.63;1668992;84;21115;-77
2022/03/16 11:07:13;;;;;;;8.13;3.40;;;;;;;9.08;45.04;102863.22;1678946;83;21040;-77
2022/03/16 11:09:40;;;;;;;6.50;3.72;;;;;;;9.07;45.00;102871.84;1710027;79;21022;-77
2022/03/16 11:14:55;;;;;;;8.50;3.72;;;;;;;9.03;45.43;102868.74;1786685;78;21022;-75
2022/03/16 11:17:22;;;;;;;6.30;3.70;;;;;;;9.00;45.29;102885.58;1769183;78;21064;-76
2022/03/16 11:19:51;;;;;;;9.98;3.60;;;;;;;8.99;45.00;102896.80;1802082;78;21565;-78
2022/03/16 11:22:32;;;;;;;6.87;3.15;;;;;;;8.99;44.96;102899.39;1791220;79;21547;-79
2022/03/16 11:25:16;;;;;;;7.00;3.52;;;;;;;8.98;44.85;102895.06;1785376;79;21585;-78
2022/03/16 11:27:51;;;;;;;5.97;3.15;;;;;;;8.96;44.37;102894.16;1785138;79;20967;-81
2022/03/16 11:30:33;;;;;;;8.05;3.60;;;;;;;8.94;44.39;102895.86;1777914;79;21509;-79
2022/03/16 11:33:06;;;;;;;6.20;3.22;;;;;;;8.94;44.45;102898.45;1789022;79;21105;-78
2022/03/16 11:35:37;;;;;;;9.13;3.98;;;;;;;8.90;44.37;102899.24;1778811;79;20974;-82
2022/03/16 11:38:11;;;;;;;6.67;3.65;;;;;;;8.88;44.20;102882.77;1770192;79;21003;-78
2022/03/16 11:40:45;;;;;;;6.55;3.33;;;;;;;8.86;44.27;102874.07;1732376;82;21153;-77